Time;durP1;ratioP1;P1;durP2;ratioP2;P2;SDS_P1;SDS_P2;PMS_P1;PMS_P2;Temp;Humidity;BMP_temperature;BMP_pressure;BME280_temperature;BME280_humidity;BME280_pressure;Samples;Min_cycle;Max_cycle;Signal;HPM_P1;HPM_P2
2022/10/03 00:00:35;;;;;;;1.75;1.20;;;;;;;15.34;45.84;99373.53;5012903;28;20523;-69
2022/10/03 00:03:38;;;;;;;1.05;0.98;;;;;;;15.29;46.43;99357.72;5013117;28;20481;-69
2022/10/03 00:06:23;;;;;;;2.58;1.20;;;;;;;15.12;46.24;99354.13;5009843;28;20034;-69
2022/10/03 00:09:10;;;;;;;1.17;0.80;;;;;;;15.18;46.36;99356.66;5011726;28;20041;-69
2022/10/03 00:11:59;;;;;;;0.93;0.88;;;;;;;15.24;46.43;99353.19;5011752;28;20033;-69
2022/10/03 00:14:33;;;;;;;1.70;1.23;;;;;;;15.01;46.49;99355.88;5011917;28;20029;-69
2022/10/03 00:17:38;;;;;;;3.35;1.05;;;;;;;15.01;46.49;99347.44;5010679;28;20030;-69
2022/10/03 00:20:52;;;;;;;1.00;1.00;;;;;;;15.19;46.18;99353.47;4993294;28;20099;-69
2022/10/03 00:23:34;;;;;;;1.35;0.80;;;;;;;15.23;46.24;99339.47;4971577;28;20035;-69
2022/10/03 00:26:32;;;;;;;4.55;1.35;;;;;;;15.21;45.93;99344.66;4970292;28;20118;-69
2022/10/03 00:29:13;;;;;;;2.00;1.02;;;;;;;14.72;46.06;99336.38;5002573;28;20100;-69
2022/10/03 00:31:41;;;;;;;1.48;0.82;;;;;;;14.59;46.33;99331.97;5011347;28;20040;-69
2022/10/03 00:34:41;;;;;;;1.67;1.25;;;;;;;14.46;46.54;99332.09;5012413;28;20064;-69
2022/10/03 00:37:31;;;;;;;0.90;0.90;;;;;;;14.36;46.76;99334.66;5011874;28;20050;-69
2022/10/03 00:40:10;;;;;;;0.60;0.60;;;;;;;14.14;46.88;99326.50;5011003;28;20045;-70
2022/10/03 00:43:03;;;;;;;1.30;1.10;;;;;;;14.00;47.66;99323.31;5011327;28;20340;-69
2022/10/03 00:46:05;;;;;;;1.45;0.70;;;;;;;14.24;47.05;99321.47;4991154;28;20050;-69
2022/10/03 00:48:52;;;;;;;1.02;0.77;;;;;;;14.15;47.10;99322.50;4992792;28;20125;-69
2022/10/03 00:51:37;;;;;;;0.98;0.93;;;;;;;14.23;47.36;99323.50;4991344;28;20029;-70
2022/10/03 00:54:26;;;;;;;0.60;0.60;;;;;;;14.35;47.01;99313.31;4991214;28;20034;-69
2022/10/03 00:57:13;;;;;;;0.80;0.63;;;;;;;14.29;46.55;99312.78;4992445;28;20449;-69
2022/10/03 01:00:23;;;;;;;0.88;0.88;;;;;;;14.41;46.80;99304.25;5007854;28;20040;-69
2022/10/03 01:02:51;;;;;;;;;;;;;;;14.46;46.83;99312.38;4952083;29;20130;-69
2022/10/03 01:05:27;;;;;;;1.40;0.90;;;;;;;14.41;46.44;99294.97;5000425;28;19971;-69
2022/10/03 01:08:22;;;;;;;1.38;1.00;;;;;;;14.52;46.19;99298.06;5011887;28;20036;-69
2022/10/03 01:11:13;;;;;;;1.02;1.02;;;;;;;14.49;46.44;99293.16;4958626;28;20427;-69
2022/10/03 01:13:55;;;;;;;1.05;1.00;;;;;;;14.47;46.96;99285.09;4980898;28;20443;-69
2022/10/03 01:16:36;;;;;;;1.88;1.25;;;;;;;14.57;46.91;99278.06;5010351;28;20032;-69
2022/10/03 01:19:04;;;;;;;2.72;0.93;;;;;;;14.59;46.69;99272.88;5011774;28;20499;-69
2022/10/03 01:21:36;;;;;;;1.20;1.10;;;;;;;14.62;46.89;99276.97;5011660;28;20033;-69
2022/10/03 01:24:35;;;;;;;5.20;1.40;;;;;;;14.52;47.52;99273.53;5011642;28;20112;-69
2022/10/03 01:27:05;;;;;;;1.55;1.45;;;;;;;14.59;47.56;99272.88;5010655;28;20029;-69
2022/10/03 01:33:08;;;;;;;1.33;1.23;;;;;;;14.73;47.13;99262.00;5010478;28;19920;-69
2022/10/03 01:36:02;;;;;;;1.40;1.30;;;;;;;14.84;47.02;99265.03;5011218;28;20030;-69
2022/10/03 01:39:01;;;;;;;1.60;1.40;;;;;;;14.68;47.83;99259.41;5011572;28;20033;-69
2022/10/03 01:41:33;;;;;;;1.67;1.40;;;;;;;14.80;47.74;99260.50;5009420;28;20026;-69
2022/10/03 01:44:07;;;;;;;1.33;1.23;;;;;;;14.89;47.58;99263.94;5010382;28;20052;-69
2022/10/03 01:46:52;;;;;;;3.22;1.55;;;;;;;14.91;47.50;99258.72;5008682;28;20060;-69
2022/10/03 01:49:27;;;;;;;1.58;1.48;;;;;;;14.90;46.86;99256.28;5013383;28;20060;-69
2022/10/03 01:52:11;;;;;;;2.35;1.50;;;;;;;14.92;46.77;99251.13;5015511;28;20106;-69
2022/10/03 01:54:58;;;;;;;3.00;1.50;;;;;;;15.01;46.41;99251.69;5015475;28;20030;-69
2022/10/03 01:57:34;;;;;;;1.50;1.40;;;;;;;15.09;46.54;99252.66;5012631;28;20377;-69
2022/10/03 02:00:19;;;;;;;1.45;1.35;;;;;;;15.18;46.50;99253.25;5015346;28;20026;-69
2022/10/03 02:02:44;;;;;;;1.67;1.23;;;;;;;15.18;46.47;99258.88;5014105;28;20412;-69
2022/10/03 02:05:47;;;;;;;7.45;1.60;;;;;;;15.15;46.58;99263.28;5015191;28;20037;-69
2022/10/03 02:08:16;;;;;;;3.45;1.50;;;;;;;14.69;48.05;99266.69;5015103;28;20022;-69
2022/10/03 02:10:48;;;;;;;2.55;1.30;;;;;;;14.17;49.74;99271.50;4995720;28;20125;-69
2022/10/03 02:13:23;;;;;;;4.57;2.47;;;;;;;13.73;51.71;99264.81;5013318;28;20053;-69
2022/10/03 02:16:00;;;;;;;8.63;4.22;;;;;;;13.66;51.36;99267.41;5014931;28;20022;-69
2022/10/03 02:18:35;;;;;;;7.70;4.32;;;;;;;13.34;51.65;99273.78;5013183;28;20516;-69
2022/10/03 02:21:12;;;;;;;10.32;4.82;;;;;;;13.14;51.79;99269.16;5014908;28;20036;-69
2022/10/03 02:23:43;;;;;;;6.05;3.42;;;;;;;12.70;53.00;99264.28;5013643;28;20036;-69
2022/10/03 02:26:17;;;;;;;5.45;3.08;;;;;;;12.91;52.67;99255.69;5013666;28;20485;-69
2022/10/03 02:29:24;;;;;;;10.70;3.03;;;;;;;13.02;52.49;99265.25;5013729;28;20034;-69
2022/10/03 02:32:20;;;;;;;5.13;2.78;;;;;;;13.17;52.22;99257.25;5014441;28;20087;-70
2022/10/03 02:35:08;;;;;;;6.72;2.90;;;;;;;13.19;52.15;99260.50;5013695;28;20113;-69
2022/10/03 02:37:52;;;;;;;14.57;3.40;;;;;;;13.26;51.65;99255.06;5014574;28;20496;-69
2022/10/03 02:40:31;;;;;;;10.73;3.65;;;;;;;13.45;51.47;99250.81;5012368;28;20427;-69
2022/10/03 02:43:19;;;;;;;3.83;2.90;;;;;;;13.50;51.50;99244.13;5011235;28;20081;-69
2022/10/03 02:46:12;;;;;;;16.20;3.35;;;;;;;13.44;51.34;99252.00;4994725;28;20489;-69
2022/10/03 02:49:32;;;;;;;9.85;3.22;;;;;;;13.79;50.60;99237.25;4993260;28;20037;-69
2022/10/03 02:52:11;;;;;;;47.30;5.72;;;;;;;13.81;50.93;99232.06;4977975;28;20133;-69
2022/10/03 02:55:22;;;;;;;13.70;2.95;;;;;;;13.83;50.59;99240.94;4994757;28;20034;-69
2022/10/03 02:58:03;;;;;;;7.57;2.40;;;;;;;13.55;51.51;99230.63;5004770;28;20405;-69
2022/10/03 03:00:46;;;;;;;;;;;;;;;13.76;51.13;99235.97;5013235;28;20072;-69
2022/10/03 03:03:24;;;;;;;4.70;2.85;;;;;;;13.60;51.48;99233.16;5013430;28;19963;-69
2022/10/03 03:05:58;;;;;;;8.77;3.70;;;;;;;13.33;51.94;99226.38;5014033;28;20476;-69
2022/10/03 03:09:01;;;;;;;11.05;4.75;;;;;;;13.29;52.35;99229.09;5009170;28;20022;-69
2022/10/03 03:12:08;;;;;;;13.48;5.50;;;;;;;13.44;51.74;99221.88;4994181;28;20468;-69
2022/10/03 03:15:07;;;;;;;23.27;10.20;;;;;;;13.36;51.99;99227.66;4993200;28;20477;-69
2022/10/03 03:17:55;;;;;;;40.20;13.68;;;;;;;12.70;53.10;99223.03;4996151;28;20512;-69
2022/10/03 03:20:40;;;;;;;21.55;6.00;;;;;;;11.83;55.52;99216.69;5013928;28;20484;-69
2022/10/03 03:23:14;;;;;;;9.48;3.67;;;;;;;11.57;56.14;99213.03;5013513;28;20084;-69
2022/10/03 03:25:45;;;;;;;8.20;2.63;;;;;;;11.65;56.23;99217.72;5013830;28;20106;-69
2022/10/03 03:28:22;;;;;;;5.50;2.08;;;;;;;11.66;56.14;99208.16;5012525;28;20021;-69
2022/10/03 03:30:56;;;;;;;9.43;2.15;;;;;;;11.95;55.08;99191.47;5013774;28;20484;-69
2022/10/03 03:33:49;;;;;;;4.97;2.33;;;;;;;11.92;55.32;99198.56;5006742;28;20535;-69
2022/10/03 03:36:36;;;;;;;10.48;1.92;;;;;;;11.75;55.78;99201.63;5009001;28;20046;-69
2022/10/03 03:39:23;;;;;;;4.75;2.47;;;;;;;11.45;57.27;99205.44;4994051;28;20029;-69
2022/10/03 03:42:03;;;;;;;2.80;2.08;;;;;;;11.22;58.07;99210.63;4993974;28;20026;-69
2022/10/03 03:45:06;;;;;;;4.95;2.47;;;;;;;11.05;58.94;99206.84;5001644;28;20077;-69
2022/10/03 03:47:59;;;;;;;9.02;2.20;;;;;;;10.98;59.65;99201.03;4999139;28;20042;-69
2022/10/03 03:50:43;;;;;;;2.28;2.08;;;;;;;11.00;59.67;99197.84;5011498;28;20413;-69
2022/10/03 03:53:30;;;;;;;7.13;2.55;;;;;;;11.04;60.22;99201.59;5011880;28;20026;-69
2022/10/03 03:56:10;;;;;;;10.13;6.32;;;;;;;11.03;60.46;99192.41;5011049;28;20034;-69
2022/10/03 03:58:41;;;;;;;9.38;3.75;;;;;;;11.04;60.43;99185.63;5013172;28;20112;-69
2022/10/03 04:01:34;;;;;;;8.20;2.97;;;;;;;11.10;60.25;99186.22;5013456;28;20025;-69
2022/10/03 04:04:19;;;;;;;2.10;1.90;;;;;;;11.08;60.67;99182.97;5008656;28;20022;-69
2022/10/03 04:07:02;;;;;;;6.70;3.28;;;;;;;11.10;60.66;99175.03;4993398;28;20109;-69
2022/10/03 04:09:55;;;;;;;4.28;2.80;;;;;;;11.16;60.75;99182.06;4996256;28;20088;-69
2022/10/03 04:12:23;;;;;;;3.15;2.22;;;;;;;11.34;60.02;99179.88;5009241;28;20080;-69
2022/10/03 04:15:26;;;;;;;7.20;3.40;;;;;;;11.46;59.66;99164.22;4992147;28;20504;-69
2022/10/03 04:21:31;;;;;;;22.83;8.65;;;;;;;11.62;59.06;99156.78;5012097;28;20471;-69
2022/10/03 04:24:12;;;;;;;22.60;9.38;;;;;;;11.93;58.47;99160.16;5012642;28;20040;-69
2022/10/03 04:26:37;;;;;;;26.30;11.57;;;;;;;12.23;57.48;99156.31;5010439;28;20033;-70
2022/10/03 04:29:33;;;;;;;36.33;16.27;;;;;;;12.41;56.58;99162.44;5007643;28;20064;-69
2022/10/03 04:32:09;;;;;;;36.30;15.55;;;;;;;12.45;56.67;99172.59;4991738;28;20030;-70
2022/10/03 04:35:05;;;;;;;30.40;11.82;;;;;;;12.40;56.82;99172.84;5002017;28;20095;-70
2022/10/03 04:37:48;;;;;;;40.78;15.88;;;;;;;12.14;56.98;99182.47;5010369;28;20100;-70
2022/10/03 04:40:17;;;;;;;34.60;16.42;;;;;;;11.98;57.11;99178.75;5011416;28;20105;-69
2022/10/03 04:42:51;;;;;;;33.88;13.00;;;;;;;11.93;57.48;99174.97;5012132;28;20041;-69
2022/10/03 04:45:29;;;;;;;27.55;10.20;;;;;;;11.88;57.90;99172.44;5012244;28;20049;-70
2022/10/03 04:48:17;;;;;;;22.00;8.68;;;;;;;11.87;58.07;99173.59;5012298;28;20422;-68
2022/10/03 04:50:49;;;;;;;15.30;7.50;;;;;;;11.64;59.41;99176.03;5011161;28;20036;-69
2022/10/03 04:53:44;;;;;;;44.15;5.93;;;;;;;11.52;60.07;99172.09;5010783;28;20544;-71
2022/10/03 04:56:33;;;;;;;8.98;4.22;;;;;;;11.40;60.78;99165.66;5009884;28;20033;-69
2022/10/03 04:59:35;;;;;;;21.58;3.63;;;;;;;11.34;60.99;99163.09;5010772;28;20116;-71
2022/10/03 05:02:23;;;;;;;8.75;3.72;;;;;;;11.01;62.48;99166.75;5010659;28;20018;-69
2022/10/03 05:05:15;;;;;;;9.40;3.42;;;;;;;11.04;62.98;99171.63;5011917;28;20022;-70
2022/10/03 05:08:19;;;;;;;6.38;2.83;;;;;;;11.30;62.16;99180.91;5011780;28;20088;-69
2022/10/03 05:10:56;;;;;;;8.73;2.22;;;;;;;11.26;62.51;99177.16;4977687;28;20034;-69
2022/10/03 05:13:43;;;;;;;6.43;2.65;;;;;;;11.50;62.19;99182.81;5013184;28;20037;-70
2022/10/03 05:16:35;;;;;;;22.98;2.90;;;;;;;11.56;61.94;99172.19;5024412;28;20032;-70
2022/10/03 05:19:32;;;;;;;3.17;2.67;;;;;;;11.84;60.83;99174.31;5011685;28;20029;-68
2022/10/03 05:22:11;;;;;;;9.02;2.60;;;;;;;11.59;61.31;99179.91;5011692;28;20091;-69
2022/10/03 05:24:47;;;;;;;6.97;3.17;;;;;;;11.82;60.96;99185.03;5008580;28;20030;-68
2022/10/03 05:27:40;;;;;;;15.60;3.65;;;;;;;12.12;60.28;99172.78;5029951;28;20033;-73
2022/10/03 05:30:43;;;;;;;15.93;4.90;;;;;;;11.98;60.04;99184.34;5030154;28;20033;-72
2022/10/03 05:33:51;;;;;;;5.90;3.47;;;;;;;12.08;59.90;99172.69;4990629;28;20033;-71
2022/10/03 05:36:22;;;;;;;29.42;4.88;;;;;;;12.11;59.79;99177.59;4994667;28;20025;-70
2022/10/03 05:39:15;;;;;;;8.65;4.70;;;;;;;12.30;59.37;99174.16;5008312;28;20563;-69
2022/10/03 05:41:52;;;;;;;14.48;4.55;;;;;;;12.00;60.21;99171.59;5010455;28;20029;-69
2022/10/03 05:44:28;;;;;;;5.75;3.70;;;;;;;11.98;60.74;99161.91;5010420;28;20129;-68
2022/10/03 05:50:27;;;;;;;10.77;3.80;;;;;;;12.27;59.75;99165.63;5002346;28;20045;-69
2022/10/03 05:53:29;;;;;;;20.27;4.10;;;;;;;12.37;59.21;99159.53;5010010;28;21677;-68
2022/10/03 05:56:37;;;;;;;6.03;2.92;;;;;;;12.62;58.27;99163.09;5005243;28;20033;-68
2022/10/03 05:59:27;;;;;;;6.55;2.70;;;;;;;12.75;58.08;99166.63;4993011;28;20070;-68
2022/10/03 06:02:16;;;;;;;9.75;2.95;;;;;;;12.89;57.43;99168.22;5009072;28;20083;-69
2022/10/03 06:05:06;;;;;;;8.57;2.60;;;;;;;13.11;56.58;99169.63;5009914;28;20037;-69
2022/10/03 06:07:49;;;;;;;4.35;2.17;;;;;;;13.41;56.37;99168.41;5010826;28;20463;-68
2022/10/03 06:10:57;;;;;;;5.35;2.42;;;;;;;13.73;54.94;99162.78;5004183;28;20029;-68
2022/10/03 06:13:53;;;;;;;6.70;3.60;;;;;;;14.00;53.88;99157.44;5005689;28;20108;-70
2022/10/03 06:16:53;;;;;;;4.90;2.60;;;;;;;14.16;52.91;99146.94;5001873;28;20034;-68
2022/10/03 06:19:38;;;;;;;7.80;3.10;;;;;;;14.40;52.07;99132.97;4996889;28;20034;-70
2022/10/03 06:22:23;;;;;;;5.93;2.92;;;;;;;14.27;52.13;99143.56;4992758;28;20516;-72
2022/10/03 06:25:11;;;;;;;6.32;4.00;;;;;;;14.11;52.89;99149.22;5006210;28;20033;-72
2022/10/03 06:27:56;;;;;;;14.88;3.45;;;;;;;14.16;52.98;99161.00;5005080;28;20057;-69
2022/10/03 06:30:25;;;;;;;9.45;4.28;;;;;;;14.25;53.05;99162.81;5008033;28;20022;-70
2022/10/03 06:33:15;;;;;;;8.68;3.42;;;;;;;14.38;52.38;99164.31;5008208;28;20017;-70
2022/10/03 06:35:57;;;;;;;7.25;3.28;;;;;;;14.34;52.41;99166.19;5010815;28;20026;-70
2022/10/03 06:38:41;;;;;;;9.40;2.90;;;;;;;14.41;51.21;99157.09;5008989;28;20034;-69
2022/10/03 06:41:40;;;;;;;17.52;5.43;;;;;;;14.59;50.21;99151.84;5001188;28;20033;-69
2022/10/03 06:44:27;;;;;;;9.23;3.63;;;;;;;15.18;48.37;99149.00;5013345;28;20539;-70
2022/10/03 06:47:25;;;;;;;14.80;4.60;;;;;;;15.49;47.57;99137.88;5009200;28;20030;-69
2022/10/03 06:50:21;;;;;;;12.93;3.03;;;;;;;15.57;47.24;99134.81;5007336;28;20041;-71
2022/10/03 06:53:06;;;;;;;26.10;3.35;;;;;;;15.67;47.31;99138.16;5007454;28;20055;-72
2022/10/03 06:55:57;;;;;;;24.38;3.13;;;;;;;15.81;47.68;99135.59;5004682;28;20040;-71
2022/10/03 06:58:26;;;;;;;;;;;;;;;15.99;46.62;99141.53;5007022;28;20084;-71
2022/10/03 07:01:05;;;;;;;137.07;54.35;;;;;;;16.19;46.48;99135.75;5010539;28;20391;-72
2022/10/03 07:03:34;;;;;;;1147.38;660.75;;;;;;;16.25;46.41;99130.59;5012832;28;20168;-70
2022/10/03 07:06:23;;;;;;;82.60;37.15;;;;;;;16.38;46.93;99126.34;5009008;28;20026;-71
2022/10/03 07:09:07;;;;;;;122.38;59.08;;;;;;;16.62;46.35;99124.22;4984106;28;20475;-72
2022/10/03 07:11:42;;;;;;;291.60;152.65;;;;;;;17.09;45.13;99126.78;5012225;28;20038;-71
2022/10/03 07:14:35;;;;;;;100.00;44.17;;;;;;;17.57;43.70;99116.72;5011954;28;20460;-70
2022/10/03 07:17:33;;;;;;;101.43;51.55;;;;;;;17.85;42.61;99112.47;4998653;28;20408;-69
2022/10/03 07:20:05;;;;;;;33.47;15.52;;;;;;;17.88;43.03;99108.88;5006583;28;20029;-70
2022/10/03 07:22:55;;;;;;;47.17;26.08;;;;;;;17.95;43.65;99104.09;4999663;28;20027;-69
2022/10/03 07:25:26;;;;;;;47.38;22.23;;;;;;;18.01;44.16;99104.53;5007475;28;20022;-68
2022/10/03 07:28:27;;;;;;;15.55;7.32;;;;;;;18.00;43.80;99105.72;5001708;28;20038;-68
2022/10/03 07:30:55;;;;;;;5.30;3.17;;;;;;;18.08;43.13;99098.91;4987150;28;20044;-70
2022/10/03 07:33:38;;;;;;;14.90;6.72;;;;;;;17.98;43.71;99101.66;5011996;28;20099;-69
2022/10/03 07:39:45;;;;;;;6.82;3.42;;;;;;;17.97;44.71;99112.16;5011716;28;20041;-70
2022/10/03 07:42:28;;;;;;;21.35;8.38;;;;;;;17.83;45.01;99102.38;5001599;28;20030;-69
2022/10/03 07:45:24;;;;;;;23.05;11.07;;;;;;;17.94;45.58;99113.78;4996694;28;20062;-69
2022/10/03 07:48:08;;;;;;;41.55;24.58;;;;;;;18.17;44.65;99112.72;5008193;28;20544;-69
2022/10/03 07:50:42;;;;;;;6.03;3.75;;;;;;;18.27;44.11;99114.00;5005856;28;20131;-69
2022/10/03 07:53:32;;;;;;;6.07;2.35;;;;;;;18.28;44.45;99107.13;5008941;28;20030;-69
2022/10/03 07:56:49;;;;;;;5.03;2.28;;;;;;;18.23;44.66;99113.19;5007092;28;20091;-69
2022/10/03 07:59:39;;;;;;;5.97;2.70;;;;;;;18.29;44.97;99107.94;4975522;28;20030;-68
2022/10/03 08:02:20;;;;;;;8.63;3.63;;;;;;;18.30;45.15;99116.03;5008013;28;20022;-69
2022/10/03 08:05:13;;;;;;;4.00;2.40;;;;;;;18.45;44.65;99114.09;5004128;28;20067;-69
2022/10/03 08:08:04;;;;;;;5.93;3.20;;;;;;;18.62;44.37;99111.72;5008381;28;20412;-69
2022/10/03 08:10:32;;;;;;;5.38;2.35;;;;;;;18.72;43.53;99112.97;5001476;28;20416;-69
2022/10/03 08:13:30;;;;;;;4.60;2.72;;;;;;;18.87;42.72;99108.97;5009651;28;20172;-69
2022/10/03 08:16:29;;;;;;;3.28;1.85;;;;;;;18.88;42.32;99109.75;4977590;28;20096;-69
2022/10/03 08:19:09;;;;;;;3.30;1.87;;;;;;;18.83;41.65;99104.50;5010380;28;20034;-69
2022/10/03 08:21:37;;;;;;;;;;;;;;;18.80;41.11;99101.25;5006905;28;20061;-69
2022/10/03 08:24:24;;;;;;;5.47;1.35;;;;;;;18.89;40.84;99108.59;5009122;28;19913;-68
2022/10/03 08:27:31;;;;;;;3.42;1.40;;;;;;;18.89;41.67;99102.91;5001923;28;20033;-67
2022/10/03 08:30:18;;;;;;;7.95;1.50;;;;;;;18.89;41.91;99112.22;4966114;28;20050;-68
2022/10/03 08:32:49;;;;;;;6.63;1.45;;;;;;;18.76;42.11;99117.44;4947467;28;20031;-68
2022/10/03 08:35:34;;;;;;;6.53;1.80;;;;;;;18.65;41.39;99120.22;4985889;28;20493;-70
2022/10/03 08:38:18;;;;;;;8.25;2.50;;;;;;;18.88;41.24;99123.94;5005156;28;20099;-68
2022/10/03 08:41:21;;;;;;;5.38;1.67;;;;;;;18.77;41.78;99129.56;4994017;28;20120;-68
2022/10/03 08:43:52;;;;;;;4.80;1.13;;;;;;;18.82;41.96;99125.53;5012027;28;20088;-68
2022/10/03 08:46:36;;;;;;;7.75;1.75;;;;;;;18.82;42.52;99129.19;5011049;28;20032;-68
2022/10/03 08:49:35;;;;;;;6.43;2.20;;;;;;;18.83;43.25;99122.31;5009200;28;20030;-69
2022/10/03 08:52:00;;;;;;;6.07;3.40;;;;;;;18.85;43.62;99130.41;5018612;28;20137;-69
2022/10/03 08:54:51;;;;;;;10.15;5.25;;;;;;;18.96;43.29;99136.13;5011471;28;20022;-70
2022/10/03 08:57:35;;;;;;;52.15;9.80;;;;;;;19.07;42.84;99139.81;5004137;28;20104;-71
2022/10/03 09:00:14;;;;;;;47.92;19.80;;;;;;;19.07;43.24;99149.13;5009035;28;20091;-71
2022/10/03 09:03:16;;;;;;;32.05;16.27;;;;;;;19.05;43.51;99157.22;5007246;28;20037;-70
2022/10/03 09:06:18;;;;;;;13.25;6.50;;;;;;;19.10;43.18;99164.53;5006739;28;20041;-70
2022/10/03 09:09:24;;;;;;;18.85;9.60;;;;;;;19.04;42.73;99166.13;5005082;28;20144;-70
2022/10/03 09:11:56;;;;;;;20.13;9.88;;;;;;;19.30;41.16;99175.50;4982572;28;20083;-69
2022/10/03 09:14:33;;;;;;;6.93;2.85;;;;;;;19.43;40.38;99175.94;5001619;28;20112;-70
2022/10/03 09:17:15;;;;;;;8.95;1.98;;;;;;;19.47;40.35;99177.56;5002172;28;20705;-72
2022/10/03 09:20:09;;;;;;;8.05;4.45;;;;;;;19.46;40.63;99186.47;5002757;28;20064;-71
2022/10/03 09:22:55;;;;;;;9.00;4.15;;;;;;;19.44;41.19;99189.72;5000411;28;20065;-71
2022/10/03 09:25:33;;;;;;;4.82;1.67;;;;;;;19.47;41.98;99190.91;5006347;28;20112;-72
2022/10/03 09:28:33;;;;;;;8.55;2.42;;;;;;;19.56;43.49;99191.34;5009169;28;20033;-72
2022/10/03 09:31:02;;;;;;;5.90;1.95;;;;;;;19.52;44.29;99204.72;5002526;28;20484;-70
2022/10/03 09:33:38;;;;;;;5.72;2.00;;;;;;;19.44;44.92;99195.38;5005180;28;20029;-72
2022/10/03 09:36:15;;;;;;;6.60;2.40;;;;;;;19.53;45.96;99208.34;5004065;28;20042;-69
2022/10/03 09:39:10;;;;;;;5.93;1.90;;;;;;;19.15;47.45;99206.63;5005474;28;20140;-70
2022/10/03 09:42:16;;;;;;;16.55;2.83;;;;;;;19.02;48.07;99211.06;5005445;28;20112;-70
2022/10/03 09:45:08;;;;;;;5.07;2.30;;;;;;;19.02;48.76;99205.38;5005680;28;20062;-72
2022/10/03 09:47:41;;;;;;;3.90;2.42;;;;;;;18.91;48.88;99214.63;4988347;28;20042;-69
2022/10/03 09:50:45;;;;;;;4.88;2.53;;;;;;;18.81;49.44;99215.38;5007950;28;20062;-70
2022/10/03 09:54:02;;;;;;;17.00;5.72;;;;;;;18.83;49.44;99212.97;5007567;28;20034;-70
2022/10/03 09:56:52;;;;;;;5.18;3.55;;;;;;;18.86;49.52;99223.50;4998174;28;20060;-70
2022/10/03 09:59:39;;;;;;;6.80;2.28;;;;;;;18.74;49.54;99224.66;5009177;28;20034;-69
2022/10/03 10:02:20;;;;;;;6.80;1.95;;;;;;;18.63;49.47;99220.97;5003010;28;20030;-70
2022/10/03 10:05:06;;;;;;;5.18;1.63;;;;;;;18.53;50.24;99222.53;4999599;28;20033;-70
2022/10/03 10:07:58;;;;;;;3.50;1.73;;;;;;;18.36;50.51;99230.53;5003542;28;20080;-70
2022/10/03 10:10:39;;;;;;;11.60;2.25;;;;;;;18.31;50.99;99227.25;5003565;28;20035;-70
2022/10/03 10:13:13;;;;;;;6.75;1.90;;;;;;;18.28;51.04;99228.84;5018617;28;20101;-70
2022/10/03 10:16:12;;;;;;;45.67;22.05;;;;;;;18.30;51.20;99236.94;5011419;28;20040;-70
2022/10/03 10:18:59;;;;;;;27.38;13.15;;;;;;;18.24;51.06;99234.47;5012632;28;20104;-70
2022/10/03 10:21:43;;;;;;;7.75;4.18;;;;;;;18.18;51.12;99238.88;5012450;28;20036;-70
2022/10/03 10:24:48;;;;;;;5.40;2.45;;;;;;;18.05;51.34;99237.56;5006091;28;20041;-71
2022/10/03 10:27:51;;;;;;;9.65;3.72;;;;;;;17.99;51.83;99231.44;5009015;28;20029;-71
2022/10/03 10:30:24;;;;;;;9.57;3.10;;;;;;;18.02;51.96;99243.97;5010032;28;20040;-70
2022/10/03 10:33:05;;;;;;;12.70;4.40;;;;;;;18.05;52.13;99249.69;4997744;28;20042;-72
2022/10/03 10:35:55;;;;;;;5.32;3.05;;;;;;;18.00;52.26;99252.88;5013670;28;20397;-72
2022/10/03 10:38:30;;;;;;;10.85;3.30;;;;;;;17.92;52.52;99248.34;5014775;28;20531;-68
2022/10/03 10:41:33;;;;;;;5.75;3.28;;;;;;;17.93;52.64;99256.44;5014651;28;20488;-70
2022/10/03 10:44:32;;;;;;;3.08;2.45;;;;;;;17.88;52.96;99253.97;5012548;28;20071;-68
2022/10/03 10:47:19;;;;;;;7.00;2.58;;;;;;;17.89;53.31;99251.94;5009980;28;20536;-69
2022/10/03 10:50:29;;;;;;;5.00;2.42;;;;;;;17.78;55.52;99254.66;5002744;28;20596;-69
2022/10/03 10:53:36;;;;;;;86.53;48.17;;;;;;;17.47;57.42;99254.75;4984603;28;20113;-69
2022/10/03 10:56:41;;;;;;;631.33;407.88;;;;;;;17.39;58.24;99250.25;5007656;28;20057;-69
2022/10/03 10:59:37;;;;;;;1260.95;696.95;;;;;;;17.32;58.28;99265.13;5013861;28;20041;-68
2022/10/03 11:02:40;;;;;;;255.07;122.53;;;;;;;17.26;58.63;99261.81;5011343;28;20041;-69
2022/10/03 11:05:42;;;;;;;242.10;125.25;;;;;;;17.24;58.84;99250.06;5008503;28;20026;-68
2022/10/03 11:08:52;;;;;;;145.48;76.90;;;;;;;17.24;58.52;99252.91;5003168;28;20417;-69
2022/10/03 11:11:48;;;;;;;277.95;142.60;;;;;;;17.22;58.53;99248.84;4981733;28;20037;-69
2022/10/03 11:14:19;;;;;;;310.17;161.10;;;;;;;17.26;58.91;99256.19;5013696;28;20022;-68
2022/10/03 11:17:03;;;;;;;90.90;45.78;;;;;;;17.23;59.82;99251.28;5009780;28;20029;-69
2022/10/03 11:19:45;;;;;;;427.27;243.55;;;;;;;17.25;60.50;99242.41;5013121;28;20470;-69
2022/10/03 11:23:06;;;;;;;607.33;310.45;;;;;;;17.23;61.46;99245.63;5012861;28;20021;-68
2022/10/03 11:25:59;;;;;;;894.65;528.25;;;;;;;17.17;61.79;99247.19;4990564;28;20042;-69
2022/10/03 11:28:49;;;;;;;434.85;234.18;;;;;;;17.03;61.62;99244.19;5008437;28;20555;-68
2022/10/03 11:31:15;;;;;;;349.15;199.32;;;;;;;17.10;61.68;99228.13;5013315;28;20030;-69
2022/10/03 11:34:05;;;;;;;256.40;149.82;;;;;;;17.25;59.91;99234.78;5011557;28;20029;-69
2022/10/03 11:36:49;;;;;;;45.55;23.08;;;;;;;17.46;58.24;99230.53;5004094;28;20038;-69
2022/10/03 11:39:32;;;;;;;14.98;9.93;;;;;;;17.64;56.97;99235.56;5009748;28;20033;-68
2022/10/03 11:42:09;;;;;;;22.55;10.38;;;;;;;17.79;55.94;99231.66;5005119;28;20033;-68
2022/10/03 11:44:49;;;;;;;18.80;10.25;;;;;;;17.87;55.62;99231.72;5005354;28;20057;-68
2022/10/03 11:47:15;;;;;;;18.60;7.43;;;;;;;18.08;54.21;99242.44;5010045;28;20025;-69
2022/10/03 11:50:14;;;;;;;11.38;5.60;;;;;;;18.21;53.45;99234.44;5011701;28;20408;-68
2022/10/03 11:52:51;;;;;;;4.75;3.40;;;;;;;18.38;52.77;99230.13;5012334;28;20492;-68
2022/10/03 11:55:23;;;;;;;7.10;4.45;;;;;;;18.45;52.26;99232.19;5010729;28;20025;-68
2022/10/03 11:58:37;;;;;;;9.43;3.03;;;;;;;18.48;50.77;99231.41;5009780;28;20029;-68
2022/10/03 12:01:15;;;;;;;5.22;2.88;;;;;;;18.62;50.64;99228.66;4976881;28;20045;-68
2022/10/03 12:04:02;;;;;;;3.17;2.60;;;;;;;18.64;49.86;99239.56;5001953;28;20022;-69
2022/10/03 12:10:01;;;;;;;8.15;3.15;;;;;;;18.74;49.66;99229.53;5011050;28;20093;-68
2022/10/03 12:12:36;;;;;;;5.40;2.13;;;;;;;18.89;48.80;99225.53;5011928;28;20083;-68
2022/10/03 12:15:22;;;;;;;11.55;3.22;;;;;;;19.00;47.37;99230.47;5011835;28;20125;-69
2022/10/03 12:18:17;;;;;;;3.75;2.20;;;;;;;18.85;47.65;99227.56;5010154;28;20032;-68
2022/10/03 12:21:33;;;;;;;10.13;2.97;;;;;;;18.84;48.15;99222.28;4981728;28;20042;-69
2022/10/03 12:24:11;;;;;;;3.17;2.72;;;;;;;18.71;48.27;99224.66;5000766;28;20038;-68
2022/10/03 12:26:55;;;;;;;5.32;2.42;;;;;;;18.75;48.63;99219.81;5010576;28;20034;-68
2022/10/03 12:29:25;;;;;;;5.03;2.30;;;;;;;18.75;48.57;99211.31;4996021;28;20518;-68
2022/10/03 12:32:16;;;;;;;2.63;2.42;;;;;;;18.71;48.34;99216.97;4997730;28;20022;-68
2022/10/03 12:34:49;;;;;;;2.40;2.20;;;;;;;18.82;48.01;99217.00;5009177;28;20030;-68
2022/10/03 12:37:48;;;;;;;4.50;2.28;;;;;;;18.78;47.37;99213.34;5009955;28;20052;-68
2022/10/03 12:40:27;;;;;;;3.72;2.15;;;;;;;18.95;47.25;99211.81;5010187;28;20112;-68
2022/10/03 12:43:05;;;;;;;5.20;2.28;;;;;;;19.11;46.96;99211.50;5008762;28;20065;-68
2022/10/03 12:45:52;;;;;;;17.92;3.35;;;;;;;19.16;46.91;99196.91;5006145;28;20061;-68
2022/10/03 12:48:17;;;;;;;4.63;2.35;;;;;;;19.14;46.81;99207.84;5003380;28;20452;-68
2022/10/03 12:50:53;;;;;;;5.10;2.00;;;;;;;19.30;46.33;99207.50;5009676;28;20113;-68
2022/10/03 12:53:31;;;;;;;8.68;1.92;;;;;;;19.55;45.78;99200.25;5008032;28;20030;-68
2022/10/03 12:56:09;;;;;;;4.35;2.50;;;;;;;19.70;45.22;99201.91;5001635;28;20018;-68
2022/10/03 12:58:46;;;;;;;6.97;2.03;;;;;;;19.66;45.38;99205.94;4996687;28;20033;-68
2022/10/03 13:01:43;;;;;;;2.15;1.95;;;;;;;19.62;44.69;99188.91;5010236;28;20021;-68
2022/10/03 13:04:34;;;;;;;3.65;2.42;;;;;;;19.67;44.90;99197.03;4987779;28;20468;-69
2022/10/03 13:07:20;;;;;;;4.50;2.20;;;;;;;19.69;43.58;99191.75;5002018;28;20117;-69
2022/10/03 13:09:49;;;;;;;3.20;1.90;;;;;;;19.91;43.24;99191.78;5002531;28;20046;-69
2022/10/03 13:12:44;;;;;;;2.15;2.05;;;;;;;20.22;43.00;99185.69;5005262;28;20026;-69
2022/10/03 13:15:56;;;;;;;7.88;2.17;;;;;;;20.27;42.32;99177.56;5002025;28;20030;-69